sensor_id;sensor_type;location;lat;lon;timestamp;P1;durP1;ratioP1;P2;durP2;ratioP2
20639;SDS011;10479;53.524;9.846;2023-02-01T00:01:39;14.35;;;1.65;;
20639;SDS011;10479;53.524;9.846;2023-02-01T00:04:04;2.80;;;0.73;;
20639;SDS011;10479;53.524;9.846;2023-02-01T00:06:30;10.07;;;1.35;;
20639;SDS011;10479;53.524;9.846;2023-02-01T00:08:55;5.68;;;1.45;;
20639;SDS011;10479;53.524;9.846;2023-02-01T00:11:21;12.50;;;1.50;;
20639;SDS011;10479;53.524;9.846;2023-02-01T00:13:47;6.80;;;0.93;;
20639;SDS011;10479;53.524;9.846;2023-02-01T00:16:15;8.75;;;1.83;;
20639;SDS011;10479;53.524;9.846;2023-02-01T00:18:44;16.35;;;1.80;;
20639;SDS011;10479;53.524;9.846;2023-02-01T00:21:11;8.48;;;1.23;;
20639;SDS011;10479;53.524;9.846;2023-02-01T00:23:37;6.85;;;0.55;;
20639;SDS011;10479;53.524;9.846;2023-02-01T00:26:04;4.28;;;1.15;;
20639;SDS011;10479;53.524;9.846;2023-02-01T00:28:32;20.38;;;1.92;;
20639;SDS011;10479;53.524;9.846;2023-02-01T00:31:02;14.25;;;1.40;;
20639;SDS011;10479;53.524;9.846;2023-02-01T00:33:29;7.03;;;1.23;;
20639;SDS011;10479;53.524;9.846;2023-02-01T00:35:58;3.90;;;0.88;;
20639;SDS011;10479;53.524;9.846;2023-02-01T00:38:31;9.52;;;2.00;;
20639;SDS011;10479;53.524;9.846;2023-02-01T00:43:33;8.13;;;1.00;;
20639;SDS011;10479;53.524;9.846;2023-02-01T00:45:59;3.17;;;1.17;;
20639;SDS011;10479;53.524;9.846;2023-02-01T00:48:24;5.75;;;1.00;;
20639;SDS011;10479;53.524;9.846;2023-02-01T00:50:50;6.63;;;2.10;;
20639;SDS011;10479;53.524;9.846;2023-02-01T00:53:16;11.82;;;2.08;;
20639;SDS011;10479;53.524;9.846;2023-02-01T00:55:44;3.97;;;2.17;;
20639;SDS011;10479;53.524;9.846;2023-02-01T00:58:10;7.22;;;1.67;;
20639;SDS011;10479;53.524;9.846;2023-02-01T01:00:35;5.05;;;1.65;;
20639;SDS011;10479;53.524;9.846;2023-02-01T01:03:01;8.93;;;0.80;;
20639;SDS011;10479;53.524;9.846;2023-02-01T01:05:26;6.82;;;1.30;;
20639;SDS011;10479;53.524;9.846;2023-02-01T01:07:54;4.72;;;1.00;;
20639;SDS011;10479;53.524;9.846;2023-02-01T01:10:20;13.90;;;2.10;;
20639;SDS011;10479;53.524;9.846;2023-02-01T01:12:45;12.82;;;2.42;;
20639;SDS011;10479;53.524;9.846;2023-02-01T01:15:11;14.35;;;1.67;;
20639;SDS011;10479;53.524;9.846;2023-02-01T01:17:36;24.88;;;2.00;;
20639;SDS011;10479;53.524;9.846;2023-02-01T01:20:02;4.18;;;2.00;;
20639;SDS011;10479;53.524;9.846;2023-02-01T01:22:28;15.98;;;3.33;;
20639;SDS011;10479;53.524;9.846;2023-02-01T01:24:53;15.20;;;2.50;;
20639;SDS011;10479;53.524;9.846;2023-02-01T01:27:19;7.32;;;1.05;;
20639;SDS011;10479;53.524;9.846;2023-02-01T01:29:48;4.65;;;1.00;;
20639;SDS011;10479;53.524;9.846;2023-02-01T01:32:14;8.40;;;0.85;;
20639;SDS011;10479;53.524;9.846;2023-02-01T01:34:40;6.05;;;1.38;;
20639;SDS011;10479;53.524;9.846;2023-02-01T01:37:05;40.55;;;3.03;;
20639;SDS011;10479;53.524;9.846;2023-02-01T01:39:31;0.70;;;0.32;;
20639;SDS011;10479;53.524;9.846;2023-02-01T01:41:56;17.50;;;2.25;;
20639;SDS011;10479;53.524;9.846;2023-02-01T01:47:30;3.80;;;1.05;;
20639;SDS011;10479;53.524;9.846;2023-02-01T01:50:02;8.73;;;1.20;;
20639;SDS011;10479;53.524;9.846;2023-02-01T01:52:28;7.18;;;1.45;;
20639;SDS011;10479;53.524;9.846;2023-02-01T01:54:54;9.25;;;1.45;;
20639;SDS011;10479;53.524;9.846;2023-02-01T01:57:20;10.70;;;1.73;;
20639;SDS011;10479;53.524;9.846;2023-02-01T01:59:52;2.90;;;0.82;;
20639;SDS011;10479;53.524;9.846;2023-02-01T02:02:21;4.93;;;0.50;;
20639;SDS011;10479;53.524;9.846;2023-02-01T02:04:46;16.30;;;0.73;;
20639;SDS011;10479;53.524;9.846;2023-02-01T02:07:20;20.48;;;1.05;;
20639;SDS011;10479;53.524;9.846;2023-02-01T02:09:47;2.67;;;1.42;;
20639;SDS011;10479;53.524;9.846;2023-02-01T02:12:13;10.70;;;2.22;;
20639;SDS011;10479;53.524;9.846;2023-02-01T02:14:38;7.15;;;1.40;;
20639;SDS011;10479;53.524;9.846;2023-02-01T02:41:31;8.32;;;2.00;;
20639;SDS011;10479;53.524;9.846;2023-02-01T02:44:30;4.30;;;1.17;;
20639;SDS011;10479;53.524;9.846;2023-02-01T02:53:18;4.57;;;1.25;;
20639;SDS011;10479;53.524;9.846;2023-02-01T02:56:05;6.10;;;0.98;;
20639;SDS011;10479;53.524;9.846;2023-02-01T02:58:50;7.28;;;2.08;;
20639;SDS011;10479;53.524;9.846;2023-02-01T03:01:34;2.50;;;0.82;;
20639;SDS011;10479;53.524;9.846;2023-02-01T03:04:17;8.25;;;1.85;;
20639;SDS011;10479;53.524;9.846;2023-02-01T03:06:43;11.38;;;1.33;;
20639;SDS011;10479;53.524;9.846;2023-02-01T03:09:15;1.73;;;1.02;;
20639;SDS011;10479;53.524;9.846;2023-02-01T03:11:43;4.72;;;0.85;;
20639;SDS011;10479;53.524;9.846;2023-02-01T03:14:45;14.02;;;2.22;;
20639;SDS011;10479;53.524;9.846;2023-02-01T03:17:13;10.18;;;3.38;;
20639;SDS011;10479;53.524;9.846;2023-02-01T03:19:40;22.55;;;1.65;;
20639;SDS011;10479;53.524;9.846;2023-02-01T03:22:14;4.95;;;1.05;;
20639;SDS011;10479;53.524;9.846;2023-02-01T03:24:44;19.00;;;2.15;;
20639;SDS011;10479;53.524;9.846;2023-02-01T03:27:13;19.75;;;1.80;;
20639;SDS011;10479;53.524;9.846;2023-02-01T03:29:47;0.68;;;0.25;;
20639;SDS011;10479;53.524;9.846;2023-02-01T03:32:18;3.53;;;0.50;;
20639;SDS011;10479;53.524;9.846;2023-02-01T03:34:44;6.97;;;1.13;;
20639;SDS011;10479;53.524;9.846;2023-02-01T03:37:10;0.00;;;0.00;;
20639;SDS011;10479;53.524;9.846;2023-02-01T03:45:00;10.90;;;1.50;;
20639;SDS011;10479;53.524;9.846;2023-02-01T03:47:34;2.25;;;1.15;;
20639;SDS011;10479;53.524;9.846;2023-02-01T03:50:05;7.93;;;2.05;;
20639;SDS011;10479;53.524;9.846;2023-02-01T03:52:42;1.02;;;0.52;;
20639;SDS011;10479;53.524;9.846;2023-02-01T03:55:10;1.50;;;0.70;;
20639;SDS011;10479;53.524;9.846;2023-02-01T03:57:39;8.75;;;1.48;;
20639;SDS011;10479;53.524;9.846;2023-02-01T04:00:13;21.73;;;2.67;;
20639;SDS011;10479;53.524;9.846;2023-02-01T04:02:41;21.10;;;2.58;;
20639;SDS011;10479;53.524;9.846;2023-02-01T04:05:07;22.98;;;2.83;;
20639;SDS011;10479;53.524;9.846;2023-02-01T04:07:32;24.80;;;3.88;;
20639;SDS011;10479;53.524;9.846;2023-02-01T04:09:58;32.50;;;3.70;;
20639;SDS011;10479;53.524;9.846;2023-02-01T04:12:23;29.48;;;3.63;;
20639;SDS011;10479;53.524;9.846;2023-02-01T04:14:49;29.02;;;3.67;;
20639;SDS011;10479;53.524;9.846;2023-02-01T04:17:14;15.13;;;3.25;;
20639;SDS011;10479;53.524;9.846;2023-02-01T04:19:40;23.63;;;2.75;;
20639;SDS011;10479;53.524;9.846;2023-02-01T04:22:05;20.48;;;2.35;;
20639;SDS011;10479;53.524;9.846;2023-02-01T04:24:31;20.85;;;2.42;;
20639;SDS011;10479;53.524;9.846;2023-02-01T04:26:56;21.35;;;2.80;;
20639;SDS011;10479;53.524;9.846;2023-02-01T04:29:21;23.05;;;2.60;;
20639;SDS011;10479;53.524;9.846;2023-02-01T04:31:47;15.93;;;2.78;;
20639;SDS011;10479;53.524;9.846;2023-02-01T04:34:12;12.48;;;2.13;;
20639;SDS011;10479;53.524;9.846;2023-02-01T04:36:38;25.95;;;2.60;;
20639;SDS011;10479;53.524;9.846;2023-02-01T04:39:03;21.15;;;2.47;;
20639;SDS011;10479;53.524;9.846;2023-02-01T04:41:28;16.50;;;2.88;;
20639;SDS011;10479;53.524;9.846;2023-02-01T04:43:55;23.23;;;2.80;;
20639;SDS011;10479;53.524;9.846;2023-02-01T04:46:20;19.08;;;2.60;;
20639;SDS011;10479;53.524;9.846;2023-02-01T04:48:46;14.38;;;2.00;;
20639;SDS011;10479;53.524;9.846;2023-02-01T04:51:11;17.55;;;2.15;;
20639;SDS011;10479;53.524;9.846;2023-02-01T04:53:37;18.77;;;2.40;;
20639;SDS011;10479;53.524;9.846;2023-02-01T04:56:02;15.88;;;2.25;;
20639;SDS011;10479;53.524;9.846;2023-02-01T04:58:28;15.38;;;2.05;;
20639;SDS011;10479;53.524;9.846;2023-02-01T05:00:54;16.05;;;2.17;;
20639;SDS011;10479;53.524;9.846;2023-02-01T05:03:19;16.75;;;2.30;;
20639;SDS011;10479;53.524;9.846;2023-02-01T05:05:46;13.65;;;1.77;;
20639;SDS011;10479;53.524;9.846;2023-02-01T05:08:12;5.63;;;0.85;;
20639;SDS011;10479;53.524;9.846;2023-02-01T05:10:38;8.32;;;1.52;;
20639;SDS011;10479;53.524;9.846;2023-02-01T05:13:03;5.60;;;1.30;;
20639;SDS011;10479;53.524;9.846;2023-02-01T05:15:47;8.07;;;1.00;;
20639;SDS011;10479;53.524;9.846;2023-02-01T05:18:12;2.70;;;0.43;;
20639;SDS011;10479;53.524;9.846;2023-02-01T05:20:38;4.57;;;0.90;;
20639;SDS011;10479;53.524;9.846;2023-02-01T05:23:03;5.20;;;0.57;;
20639;SDS011;10479;53.524;9.846;2023-02-01T05:25:29;2.92;;;0.40;;
20639;SDS011;10479;53.524;9.846;2023-02-01T05:27:57;3.53;;;0.40;;
20639;SDS011;10479;53.524;9.846;2023-02-01T05:30:23;3.15;;;0.30;;
20639;SDS011;10479;53.524;9.846;2023-02-01T05:32:51;5.68;;;0.70;;
20639;SDS011;10479;53.524;9.846;2023-02-01T05:35:17;1.88;;;0.40;;
20639;SDS011;10479;53.524;9.846;2023-02-01T05:37:43;6.80;;;0.70;;
20639;SDS011;10479;53.524;9.846;2023-02-01T05:40:08;6.80;;;0.60;;
20639;SDS011;10479;53.524;9.846;2023-02-01T05:42:34;3.72;;;0.50;;
20639;SDS011;10479;53.524;9.846;2023-02-01T05:45:00;5.25;;;0.55;;
20639;SDS011;10479;53.524;9.846;2023-02-01T05:47:25;5.70;;;0.73;;
20639;SDS011;10479;53.524;9.846;2023-02-01T05:49:51;5.55;;;0.80;;
20639;SDS011;10479;53.524;9.846;2023-02-01T05:52:17;8.05;;;0.70;;
20639;SDS011;10479;53.524;9.846;2023-02-01T05:54:45;2.05;;;0.45;;
20639;SDS011;10479;53.524;9.846;2023-02-01T05:57:12;5.20;;;0.70;;
20639;SDS011;10479;53.524;9.846;2023-02-01T05:59:38;3.75;;;0.70;;
20639;SDS011;10479;53.524;9.846;2023-02-01T06:02:06;4.63;;;0.70;;
20639;SDS011;10479;53.524;9.846;2023-02-01T06:04:32;6.22;;;0.90;;
20639;SDS011;10479;53.524;9.846;2023-02-01T06:06:58;6.75;;;0.90;;
20639;SDS011;10479;53.524;9.846;2023-02-01T06:09:23;7.68;;;1.05;;
20639;SDS011;10479;53.524;9.846;2023-02-01T06:11:49;9.38;;;1.23;;
20639;SDS011;10479;53.524;9.846;2023-02-01T06:14:14;9.40;;;1.23;;
20639;SDS011;10479;53.524;9.846;2023-02-01T06:16:40;7.20;;;1.38;;
20639;SDS011;10479;53.524;9.846;2023-02-01T06:19:05;7.53;;;1.08;;
20639;SDS011;10479;53.524;9.846;2023-02-01T06:21:31;9.30;;;1.20;;
20639;SDS011;10479;53.524;9.846;2023-02-01T06:23:56;12.05;;;2.20;;
20639;SDS011;10479;53.524;9.846;2023-02-01T06:26:23;15.30;;;1.48;;
20639;SDS011;10479;53.524;9.846;2023-02-01T06:28:49;13.50;;;1.45;;
20639;SDS011;10479;53.524;9.846;2023-02-01T06:31:14;12.30;;;1.77;;
20639;SDS011;10479;53.524;9.846;2023-02-01T06:33:40;10.82;;;1.50;;
20639;SDS011;10479;53.524;9.846;2023-02-01T06:36:06;13.02;;;1.27;;
20639;SDS011;10479;53.524;9.846;2023-02-01T06:38:33;10.15;;;1.55;;
20639;SDS011;10479;53.524;9.846;2023-02-01T06:41:02;21.85;;;2.85;;
20639;SDS011;10479;53.524;9.846;2023-02-01T06:43:28;27.45;;;4.18;;
20639;SDS011;10479;53.524;9.846;2023-02-01T06:45:58;18.10;;;1.88;;
20639;SDS011;10479;53.524;9.846;2023-02-01T06:48:29;26.70;;;2.38;;
20639;SDS011;10479;53.524;9.846;2023-02-01T06:50:55;15.43;;;2.83;;
20639;SDS011;10479;53.524;9.846;2023-02-01T06:53:20;18.25;;;2.40;;
20639;SDS011;10479;53.524;9.846;2023-02-01T06:55:56;22.77;;;2.80;;
20639;SDS011;10479;53.524;9.846;2023-02-01T06:58:23;20.08;;;2.88;;
20639;SDS011;10479;53.524;9.846;2023-02-01T07:00:48;25.08;;;3.28;;
20639;SDS011;10479;53.524;9.846;2023-02-01T07:03:14;32.28;;;2.95;;
20639;SDS011;10479;53.524;9.846;2023-02-01T07:05:39;26.63;;;3.08;;
20639;SDS011;10479;53.524;9.846;2023-02-01T07:08:05;23.58;;;2.88;;
20639;SDS011;10479;53.524;9.846;2023-02-01T07:10:30;19.17;;;3.63;;
20639;SDS011;10479;53.524;9.846;2023-02-01T07:12:59;25.90;;;3.33;;
20639;SDS011;10479;53.524;9.846;2023-02-01T07:15:25;25.88;;;3.35;;
20639;SDS011;10479;53.524;9.846;2023-02-01T07:17:50;30.67;;;3.78;;
20639;SDS011;10479;53.524;9.846;2023-02-01T07:20:16;34.45;;;4.82;;
20639;SDS011;10479;53.524;9.846;2023-02-01T07:22:41;41.83;;;5.20;;
20639;SDS011;10479;53.524;9.846;2023-02-01T07:25:07;23.90;;;3.97;;
20639;SDS011;10479;53.524;9.846;2023-02-01T07:27:34;32.17;;;4.10;;
20639;SDS011;10479;53.524;9.846;2023-02-01T07:30:01;25.45;;;4.43;;
20639;SDS011;10479;53.524;9.846;2023-02-01T07:32:28;35.75;;;5.15;;
20639;SDS011;10479;53.524;9.846;2023-02-01T07:34:54;34.72;;;3.90;;
20639;SDS011;10479;53.524;9.846;2023-02-01T07:37:19;30.08;;;5.35;;
20639;SDS011;10479;53.524;9.846;2023-02-01T07:39:45;33.35;;;4.13;;
20639;SDS011;10479;53.524;9.846;2023-02-01T07:42:10;46.15;;;4.05;;
20639;SDS011;10479;53.524;9.846;2023-02-01T07:44:36;26.45;;;3.30;;
20639;SDS011;10479;53.524;9.846;2023-02-01T07:49:29;39.47;;;4.18;;
20639;SDS011;10479;53.524;9.846;2023-02-01T07:51:56;28.55;;;3.42;;
20639;SDS011;10479;53.524;9.846;2023-02-01T07:54:22;35.63;;;4.57;;
20639;SDS011;10479;53.524;9.846;2023-02-01T07:56:48;35.97;;;4.03;;
20639;SDS011;10479;53.524;9.846;2023-02-01T07:59:13;30.65;;;3.85;;
20639;SDS011;10479;53.524;9.846;2023-02-01T08:01:40;35.75;;;4.32;;
20639;SDS011;10479;53.524;9.846;2023-02-01T08:04:05;26.35;;;3.75;;
20639;SDS011;10479;53.524;9.846;2023-02-01T08:06:32;34.58;;;3.63;;
20639;SDS011;10479;53.524;9.846;2023-02-01T08:08:59;28.65;;;4.28;;
20639;SDS011;10479;53.524;9.846;2023-02-01T08:11:25;27.67;;;3.95;;
20639;SDS011;10479;53.524;9.846;2023-02-01T08:13:51;29.88;;;3.60;;
20639;SDS011;10479;53.524;9.846;2023-02-01T08:16:17;30.77;;;3.75;;
20639;SDS011;10479;53.524;9.846;2023-02-01T08:18:44;23.70;;;3.78;;
20639;SDS011;10479;53.524;9.846;2023-02-01T08:21:14;33.50;;;3.95;;
20639;SDS011;10479;53.524;9.846;2023-02-01T08:23:41;50.05;;;5.18;;
20639;SDS011;10479;53.524;9.846;2023-02-01T08:28:40;30.67;;;5.13;;
20639;SDS011;10479;53.524;9.846;2023-02-01T08:31:08;36.75;;;4.72;;
20639;SDS011;10479;53.524;9.846;2023-02-01T08:33:35;36.40;;;4.22;;
20639;SDS011;10479;53.524;9.846;2023-02-01T08:36:02;34.50;;;4.28;;
20639;SDS011;10479;53.524;9.846;2023-02-01T08:38:28;40.50;;;4.45;;
20639;SDS011;10479;53.524;9.846;2023-02-01T08:40:54;29.17;;;4.20;;
20639;SDS011;10479;53.524;9.846;2023-02-01T08:43:19;31.90;;;3.72;;
20639;SDS011;10479;53.524;9.846;2023-02-01T08:45:45;28.45;;;3.80;;
20639;SDS011;10479;53.524;9.846;2023-02-01T08:48:11;29.92;;;3.67;;
20639;SDS011;10479;53.524;9.846;2023-02-01T08:50:36;31.33;;;4.10;;
20639;SDS011;10479;53.524;9.846;2023-02-01T08:53:02;37.58;;;3.80;;
20639;SDS011;10479;53.524;9.846;2023-02-01T08:55:27;26.48;;;3.80;;
20639;SDS011;10479;53.524;9.846;2023-02-01T08:57:53;26.67;;;4.20;;
20639;SDS011;10479;53.524;9.846;2023-02-01T09:00:18;27.85;;;3.80;;
20639;SDS011;10479;53.524;9.846;2023-02-01T09:02:44;25.80;;;4.03;;
20639;SDS011;10479;53.524;9.846;2023-02-01T09:05:10;36.78;;;4.55;;
20639;SDS011;10479;53.524;9.846;2023-02-01T09:07:36;33.38;;;4.15;;
20639;SDS011;10479;53.524;9.846;2023-02-01T09:10:02;29.58;;;4.15;;
20639;SDS011;10479;53.524;9.846;2023-02-01T09:12:28;31.83;;;3.83;;
20639;SDS011;10479;53.524;9.846;2023-02-01T09:14:55;34.63;;;4.90;;
20639;SDS011;10479;53.524;9.846;2023-02-01T09:17:21;27.23;;;3.63;;
20639;SDS011;10479;53.524;9.846;2023-02-01T09:19:47;31.17;;;3.85;;
20639;SDS011;10479;53.524;9.846;2023-02-01T09:22:14;34.47;;;4.03;;
20639;SDS011;10479;53.524;9.846;2023-02-01T09:24:40;33.53;;;3.80;;
20639;SDS011;10479;53.524;9.846;2023-02-01T09:27:05;30.88;;;4.45;;
20639;SDS011;10479;53.524;9.846;2023-02-01T09:29:31;30.80;;;4.40;;
20639;SDS011;10479;53.524;9.846;2023-02-01T09:31:56;22.45;;;3.45;;
20639;SDS011;10479;53.524;9.846;2023-02-01T09:34:22;39.95;;;4.82;;
20639;SDS011;10479;53.524;9.846;2023-02-01T09:36:47;21.95;;;3.58;;
20639;SDS011;10479;53.524;9.846;2023-02-01T09:39:13;24.77;;;4.00;;
20639;SDS011;10479;53.524;9.846;2023-02-01T09:41:45;29.92;;;3.80;;
20639;SDS011;10479;53.524;9.846;2023-02-01T09:44:34;29.73;;;3.80;;
20639;SDS011;10479;53.524;9.846;2023-02-01T09:47:22;33.38;;;4.18;;
20639;SDS011;10479;53.524;9.846;2023-02-01T09:50:02;22.67;;;4.50;;
20639;SDS011;10479;53.524;9.846;2023-02-01T09:52:36;22.95;;;3.58;;
20639;SDS011;10479;53.524;9.846;2023-02-01T09:55:11;24.05;;;3.90;;
20639;SDS011;10479;53.524;9.846;2023-02-01T09:57:45;34.42;;;3.83;;
20639;SDS011;10479;53.524;9.846;2023-02-01T10:00:26;21.83;;;2.88;;
20639;SDS011;10479;53.524;9.846;2023-02-01T10:02:54;29.52;;;3.70;;
20639;SDS011;10479;53.524;9.846;2023-02-01T10:08:25;30.75;;;3.42;;
20639;SDS011;10479;53.524;9.846;2023-02-01T10:10:56;30.17;;;3.90;;
20639;SDS011;10479;53.524;9.846;2023-02-01T10:13:44;27.40;;;3.47;;
20639;SDS011;10479;53.524;9.846;2023-02-01T10:21:51;28.65;;;3.30;;
20639;SDS011;10479;53.524;9.846;2023-02-01T10:24:34;25.52;;;3.42;;
20639;SDS011;10479;53.524;9.846;2023-02-01T10:29:42;25.42;;;3.50;;
20639;SDS011;10479;53.524;9.846;2023-02-01T10:32:15;25.20;;;3.88;;
20639;SDS011;10479;53.524;9.846;2023-02-01T10:34:43;31.63;;;3.65;;
20639;SDS011;10479;53.524;9.846;2023-02-01T10:39:57;28.50;;;4.22;;
20639;SDS011;10479;53.524;9.846;2023-02-01T10:42:26;30.92;;;3.70;;
20639;SDS011;10479;53.524;9.846;2023-02-01T10:44:53;20.92;;;3.53;;
20639;SDS011;10479;53.524;9.846;2023-02-01T10:47:20;23.20;;;2.80;;
20639;SDS011;10479;53.524;9.846;2023-02-01T10:55:32;25.67;;;3.63;;
20639;SDS011;10479;53.524;9.846;2023-02-01T10:58:00;38.88;;;3.92;;
20639;SDS011;10479;53.524;9.846;2023-02-01T11:00:33;25.98;;;3.53;;
20639;SDS011;10479;53.524;9.846;2023-02-01T11:03:01;27.63;;;3.33;;
20639;SDS011;10479;53.524;9.846;2023-02-01T11:05:45;20.42;;;2.80;;
20639;SDS011;10479;53.524;9.846;2023-02-01T11:08:14;22.38;;;3.70;;
20639;SDS011;10479;53.524;9.846;2023-02-01T11:10:41;26.33;;;3.83;;
20639;SDS011;10479;53.524;9.846;2023-02-01T11:13:14;28.67;;;4.05;;
20639;SDS011;10479;53.524;9.846;2023-02-01T11:15:45;18.00;;;2.85;;
20639;SDS011;10479;53.524;9.846;2023-02-01T11:18:20;24.40;;;3.33;;
20639;SDS011;10479;53.524;9.846;2023-02-01T11:20:51;26.23;;;3.47;;
20639;SDS011;10479;53.524;9.846;2023-02-01T11:23:20;27.15;;;3.08;;
20639;SDS011;10479;53.524;9.846;2023-02-01T11:25:55;24.25;;;4.15;;
20639;SDS011;10479;53.524;9.846;2023-02-01T11:28:26;26.40;;;3.78;;
20639;SDS011;10479;53.524;9.846;2023-02-01T11:30:55;30.73;;;2.80;;
20639;SDS011;10479;53.524;9.846;2023-02-01T11:33:24;26.90;;;3.70;;
20639;SDS011;10479;53.524;9.846;2023-02-01T11:35:55;27.15;;;3.38;;
20639;SDS011;10479;53.524;9.846;2023-02-01T11:38:23;32.53;;;4.30;;
20639;SDS011;10479;53.524;9.846;2023-02-01T11:40:52;17.98;;;2.50;;
20639;SDS011;10479;53.524;9.846;2023-02-01T11:43:25;27.60;;;3.25;;
20639;SDS011;10479;53.524;9.846;2023-02-01T11:48:20;17.25;;;2.22;;
20639;SDS011;10479;53.524;9.846;2023-02-01T11:59:16;20.67;;;2.70;;
20639;SDS011;10479;53.524;9.846;2023-02-01T12:06:51;14.85;;;2.42;;
20639;SDS011;10479;53.524;9.846;2023-02-01T12:14:39;21.30;;;2.80;;
20639;SDS011;10479;53.524;9.846;2023-02-01T12:19:59;16.90;;;2.03;;
20639;SDS011;10479;53.524;9.846;2023-02-01T12:44:25;4.90;;;0.60;;
20639;SDS011;10479;53.524;9.846;2023-02-01T12:46:55;3.05;;;0.70;;
20639;SDS011;10479;53.524;9.846;2023-02-01T12:51:57;2.22;;;0.50;;
20639;SDS011;10479;53.524;9.846;2023-02-01T12:54:36;1.73;;;0.50;;
20639;SDS011;10479;53.524;9.846;2023-02-01T12:57:13;2.65;;;0.50;;
20639;SDS011;10479;53.524;9.846;2023-02-01T12:59:46;4.20;;;0.70;;
20639;SDS011;10479;53.524;9.846;2023-02-01T13:05:11;2.70;;;0.70;;
20639;SDS011;10479;53.524;9.846;2023-02-01T13:07:43;2.60;;;0.60;;
20639;SDS011;10479;53.524;9.846;2023-02-01T13:12:44;1.42;;;0.70;;
20639;SDS011;10479;53.524;9.846;2023-02-01T13:15:32;3.00;;;0.70;;
20639;SDS011;10479;53.524;9.846;2023-02-01T13:18:03;5.50;;;0.60;;
20639;SDS011;10479;53.524;9.846;2023-02-01T13:20:30;1.80;;;0.43;;
20639;SDS011;10479;53.524;9.846;2023-02-01T13:23:33;2.42;;;0.55;;
20639;SDS011;10479;53.524;9.846;2023-02-01T13:25:54;1.88;;;0.50;;
20639;SDS011;10479;53.524;9.846;2023-02-01T13:28:23;2.05;;;0.40;;
20639;SDS011;10479;53.524;9.846;2023-02-01T13:33:47;3.03;;;0.70;;
20639;SDS011;10479;53.524;9.846;2023-02-01T13:36:31;3.05;;;0.60;;
20639;SDS011;10479;53.524;9.846;2023-02-01T13:41:41;2.22;;;0.50;;
20639;SDS011;10479;53.524;9.846;2023-02-01T13:44:16;3.15;;;0.82;;
20639;SDS011;10479;53.524;9.846;2023-02-01T13:46:54;2.63;;;0.50;;
20639;SDS011;10479;53.524;9.846;2023-02-01T13:49:25;5.38;;;0.70;;
20639;SDS011;10479;53.524;9.846;2023-02-01T13:51:53;4.22;;;0.63;;
20639;SDS011;10479;53.524;9.846;2023-02-01T13:57:00;2.72;;;0.60;;
20639;SDS011;10479;53.524;9.846;2023-02-01T14:05:08;5.43;;;0.75;;
20639;SDS011;10479;53.524;9.846;2023-02-01T14:07:46;6.05;;;0.80;;
20639;SDS011;10479;53.524;9.846;2023-02-01T14:23:41;7.05;;;1.15;;
20639;SDS011;10479;53.524;9.846;2023-02-01T14:26:09;12.40;;;1.60;;
20639;SDS011;10479;53.524;9.846;2023-02-01T14:28:39;17.13;;;2.78;;
20639;SDS011;10479;53.524;9.846;2023-02-01T14:31:17;10.45;;;1.15;;
20639;SDS011;10479;53.524;9.846;2023-02-01T14:33:54;13.98;;;1.88;;
20639;SDS011;10479;53.524;9.846;2023-02-01T14:36:21;12.95;;;2.00;;
20639;SDS011;10479;53.524;9.846;2023-02-01T14:38:48;9.25;;;1.13;;
20639;SDS011;10479;53.524;9.846;2023-02-01T14:49:30;14.63;;;2.13;;
20639;SDS011;10479;53.524;9.846;2023-02-01T14:51:57;23.25;;;2.83;;
20639;SDS011;10479;53.524;9.846;2023-02-01T14:54:24;21.75;;;2.55;;
20639;SDS011;10479;53.524;9.846;2023-02-01T14:56:50;28.50;;;3.45;;
20639;SDS011;10479;53.524;9.846;2023-02-01T14:59:16;19.80;;;2.65;;
20639;SDS011;10479;53.524;9.846;2023-02-01T15:01:50;16.25;;;1.85;;
20639;SDS011;10479;53.524;9.846;2023-02-01T15:04:19;11.88;;;2.10;;
20639;SDS011;10479;53.524;9.846;2023-02-01T15:07:05;12.82;;;2.53;;
20639;SDS011;10479;53.524;9.846;2023-02-01T15:09:37;12.88;;;1.35;;
20639;SDS011;10479;53.524;9.846;2023-02-01T15:12:09;17.52;;;2.08;;
20639;SDS011;10479;53.524;9.846;2023-02-01T15:15:03;12.73;;;1.63;;
20639;SDS011;10479;53.524;9.846;2023-02-01T15:17:38;16.52;;;2.00;;
20639;SDS011;10479;53.524;9.846;2023-02-01T15:22:40;13.07;;;1.38;;
20639;SDS011;10479;53.524;9.846;2023-02-01T15:25:17;14.30;;;1.85;;
20639;SDS011;10479;53.524;9.846;2023-02-01T15:27:44;9.70;;;2.33;;
20639;SDS011;10479;53.524;9.846;2023-02-01T15:30:23;10.75;;;1.40;;
20639;SDS011;10479;53.524;9.846;2023-02-01T15:33:04;12.87;;;1.60;;
20639;SDS011;10479;53.524;9.846;2023-02-01T15:35:36;14.73;;;2.95;;
20639;SDS011;10479;53.524;9.846;2023-02-01T15:41:02;12.07;;;1.55;;
20639;SDS011;10479;53.524;9.846;2023-02-01T15:46:40;8.07;;;1.85;;
20639;SDS011;10479;53.524;9.846;2023-02-01T15:49:24;16.48;;;2.13;;
20639;SDS011;10479;53.524;9.846;2023-02-01T15:51:53;25.40;;;2.35;;
20639;SDS011;10479;53.524;9.846;2023-02-01T15:54:22;16.35;;;2.47;;
20639;SDS011;10479;53.524;9.846;2023-02-01T15:56:50;24.70;;;2.38;;
20639;SDS011;10479;53.524;9.846;2023-02-01T15:59:19;20.75;;;2.70;;
20639;SDS011;10479;53.524;9.846;2023-02-01T16:01:49;17.25;;;2.10;;
20639;SDS011;10479;53.524;9.846;2023-02-01T16:06:45;19.98;;;2.05;;
20639;SDS011;10479;53.524;9.846;2023-02-01T16:09:20;15.13;;;2.08;;
20639;SDS011;10479;53.524;9.846;2023-02-01T16:11:55;18.63;;;2.65;;
20639;SDS011;10479;53.524;9.846;2023-02-01T16:14:24;19.33;;;2.58;;
20639;SDS011;10479;53.524;9.846;2023-02-01T16:16:51;27.25;;;2.45;;
20639;SDS011;10479;53.524;9.846;2023-02-01T16:19:18;26.33;;;3.85;;
20639;SDS011;10479;53.524;9.846;2023-02-01T16:21:43;28.52;;;3.47;;
20639;SDS011;10479;53.524;9.846;2023-02-01T16:24:09;22.27;;;3.50;;
20639;SDS011;10479;53.524;9.846;2023-02-01T16:26:34;24.52;;;3.97;;
20639;SDS011;10479;53.524;9.846;2023-02-01T16:29:00;22.40;;;3.80;;
20639;SDS011;10479;53.524;9.846;2023-02-01T16:31:31;26.38;;;4.10;;
20639;SDS011;10479;53.524;9.846;2023-02-01T16:33:59;29.05;;;4.22;;
20639;SDS011;10479;53.524;9.846;2023-02-01T16:36:25;33.05;;;4.00;;
20639;SDS011;10479;53.524;9.846;2023-02-01T16:38:52;27.80;;;3.50;;
20639;SDS011;10479;53.524;9.846;2023-02-01T16:41:18;32.70;;;4.70;;
20639;SDS011;10479;53.524;9.846;2023-02-01T16:43:45;28.90;;;3.88;;
20639;SDS011;10479;53.524;9.846;2023-02-01T16:46:14;39.22;;;5.20;;
20639;SDS011;10479;53.524;9.846;2023-02-01T16:48:42;33.58;;;4.25;;
20639;SDS011;10479;53.524;9.846;2023-02-01T16:51:11;37.78;;;4.63;;
20639;SDS011;10479;53.524;9.846;2023-02-01T16:53:38;32.42;;;4.05;;
20639;SDS011;10479;53.524;9.846;2023-02-01T16:56:13;37.10;;;4.93;;
20639;SDS011;10479;53.524;9.846;2023-02-01T16:58:54;33.75;;;4.13;;
20639;SDS011;10479;53.524;9.846;2023-02-01T17:01:20;39.75;;;4.75;;
20639;SDS011;10479;53.524;9.846;2023-02-01T17:03:46;31.73;;;4.28;;
20639;SDS011;10479;53.524;9.846;2023-02-01T17:06:13;41.60;;;5.90;;
20639;SDS011;10479;53.524;9.846;2023-02-01T17:08:41;42.53;;;5.90;;
20639;SDS011;10479;53.524;9.846;2023-02-01T17:11:07;32.75;;;4.45;;
20639;SDS011;10479;53.524;9.846;2023-02-01T17:13:34;33.67;;;4.15;;
20639;SDS011;10479;53.524;9.846;2023-02-01T17:16:04;37.10;;;3.63;;
20639;SDS011;10479;53.524;9.846;2023-02-01T17:18:32;28.15;;;4.07;;
20639;SDS011;10479;53.524;9.846;2023-02-01T17:20:58;30.05;;;4.25;;
20639;SDS011;10479;53.524;9.846;2023-02-01T17:23:26;34.58;;;4.45;;
20639;SDS011;10479;53.524;9.846;2023-02-01T17:25:53;28.33;;;3.03;;
20639;SDS011;10479;53.524;9.846;2023-02-01T17:28:19;33.47;;;3.58;;
20639;SDS011;10479;53.524;9.846;2023-02-01T17:30:44;31.27;;;4.75;;
20639;SDS011;10479;53.524;9.846;2023-02-01T17:33:52;27.55;;;3.33;;
20639;SDS011;10479;53.524;9.846;2023-02-01T17:35:59;25.27;;;3.30;;